< < Back
Terminal Aerodrome Forecast


Current Version              Previous Versions:   1  2  3  4  5  6  7  8  9  

Terminal Aerodrome Forecast

336
FTUS42 KMLB 251100
TAFMCO
TAF
KMCO 251123Z 2512/2612 35010KT P6SM SCT050
     FM260000 01006KT P6SM SKC=



Latest METAR

711
SAUS70 KWBC 260200 RRA
MTRMCO
METAR KMCO 260153Z 01006KT 10SM CLR 19/16 A3001 RMK AO2 SLP159 T01940156
$


USA.gov is the U.S. government's official web portal to all federal, state and local government web resources and services.